Time;durP1;ratioP1;P1;durP2;ratioP2;P2;SDS_P1;SDS_P2;PMS_P1;PMS_P2;Temp;Humidity;BMP_temperature;BMP_pressure;BME280_temperature;BME280_humidity;BME280_pressure;Samples;Min_cycle;Max_cycle;Signal;HPM_P1;HPM_P2
2022/06/01 00:00:21;;;;;;;6.47;3.07;;;;;;;10.79;80.29;96060.78;10362738;28;96974;-71
2022/06/01 00:05:24;;;;;;;7.30;3.08;;;;;;;10.76;80.09;96054.06;10369653;28;97223;-72
2022/06/01 00:10:29;;;;;;;7.05;3.20;;;;;;;10.59;80.73;96053.13;10355442;28;97085;-72
2022/06/01 00:15:32;;;;;;;5.32;3.00;;;;;;;10.58;80.81;96064.56;10355192;28;97805;-72
2022/06/01 00:20:35;;;;;;;5.45;2.75;;;;;;;10.67;80.04;96059.38;10350565;28;97390;-71
2022/06/01 00:25:39;;;;;;;5.95;3.05;;;;;;;10.64;80.68;96060.53;10354664;28;97046;-71
2022/06/01 00:30:42;;;;;;;4.00;3.10;;;;;;;10.72;80.51;96060.59;10348445;28;97984;-71
2022/06/01 00:35:45;;;;;;;4.07;2.90;;;;;;;10.68;80.70;96069.69;10366504;28;97182;-71
2022/06/01 00:40:50;;;;;;;7.45;3.03;;;;;;;10.63;80.81;96073.75;10365649;28;97116;-72
2022/06/01 00:45:53;;;;;;;2.80;2.50;;;;;;;10.59;80.40;96060.16;10361485;28;96897;-72
2022/06/01 00:50:56;;;;;;;6.38;2.72;;;;;;;10.55;80.31;96057.03;10351664;28;96988;-71
2022/06/01 00:56:04;;;;;;;4.82;3.50;;;;;;;10.57;80.66;96049.88;10355297;28;96918;-71
2022/06/01 01:01:11;;;;;;;4.45;2.85;;;;;;;10.53;80.17;96051.16;10363343;28;96787;-71
2022/06/01 01:06:18;;;;;;;5.93;3.45;;;;;;;10.46;80.30;96044.06;10345077;28;96958;-72
2022/06/01 01:11:26;;;;;;;4.57;2.92;;;;;;;10.42;80.83;96035.72;10374657;28;97193;-71
2022/06/01 01:16:31;;;;;;;4.70;3.10;;;;;;;10.41;80.31;96045.34;10372609;28;98098;-72
2022/06/01 01:21:46;;;;;;;4.75;3.00;;;;;;;10.33;80.84;96047.06;10371330;28;97332;-72
2022/06/01 01:26:52;;;;;;;4.32;2.78;;;;;;;10.21;81.32;96041.25;10374413;28;97130;-71
2022/06/01 01:31:55;;;;;;;5.28;2.90;;;;;;;10.06;81.49;96043.56;10371982;28;99116;-71
2022/06/01 01:37:02;;;;;;;4.75;2.85;;;;;;;10.05;81.43;96042.75;10367281;28;97371;-71
2022/06/01 01:42:07;;;;;;;4.93;2.92;;;;;;;9.98;81.65;96043.50;10362304;28;97579;-71
2022/06/01 01:47:11;;;;;;;4.63;3.10;;;;;;;9.84;81.77;96040.44;10366414;28;96967;-71
2022/06/01 01:52:17;;;;;;;4.55;3.13;;;;;;;9.87;81.93;96044.56;10359867;28;97175;-72
2022/06/01 01:57:35;;;;;;;7.15;2.90;;;;;;;9.81;82.13;96024.25;10367989;28;97106;-71
2022/06/01 02:02:43;;;;;;;3.42;2.92;;;;;;;9.72;82.41;96028.56;10355958;28;96906;-72
2022/06/01 02:07:50;;;;;;;4.65;3.15;;;;;;;9.81;82.21;96035.50;10364452;28;98441;-72
2022/06/01 02:12:56;;;;;;;6.43;2.70;;;;;;;9.86;81.61;96033.28;10366475;28;96781;-71
2022/06/01 02:18:04;;;;;;;3.38;2.75;;;;;;;9.86;81.42;96012.41;10371458;28;100298;-71
2022/06/01 02:23:11;;;;;;;4.78;2.70;;;;;;;9.81;81.64;96021.66;10346081;28;98548;-71
2022/06/01 02:28:16;;;;;;;6.20;3.13;;;;;;;9.75;81.91;96010.03;10364743;28;97241;-71
2022/06/01 02:33:24;;;;;;;4.15;3.22;;;;;;;9.79;81.87;96013.97;10367220;28;97464;-71
2022/06/01 02:38:33;;;;;;;3.88;2.92;;;;;;;9.70;82.56;96009.66;10353588;28;97314;-71
2022/06/01 02:43:50;;;;;;;4.55;3.03;;;;;;;9.79;82.26;96006.13;10357319;28;97425;-71
2022/06/01 02:48:53;;;;;;;4.80;2.95;;;;;;;9.90;81.66;96005.09;10365814;28;98844;-71
2022/06/01 02:53:56;;;;;;;4.30;2.85;;;;;;;9.99;81.86;95999.00;10352113;28;96868;-71
2022/06/01 02:59:00;;;;;;;4.90;2.72;;;;;;;10.07;81.80;95993.00;10357968;28;98859;-71
2022/06/01 03:04:05;;;;;;;5.60;3.17;;;;;;;10.14;81.53;95988.81;10360627;28;98668;-71
2022/06/01 03:09:10;;;;;;;;;;;;;;;10.20;81.51;95983.00;10364721;28;97267;-71
2022/06/01 03:14:15;;;;;;;5.17;3.33;;;;;;;10.25;81.46;95990.38;10359994;28;97096;-71
2022/06/01 03:19:17;;;;;;;3.80;2.73;;;;;;;10.28;80.95;95987.47;10368868;28;96880;-71
2022/06/01 03:24:21;;;;;;;3.08;2.55;;;;;;;10.38;80.82;95992.59;10363283;28;96918;-71
2022/06/01 03:29:25;;;;;;;4.55;3.08;;;;;;;10.49;81.07;95984.50;10370218;28;96980;-71
2022/06/01 03:34:30;;;;;;;5.25;2.70;;;;;;;10.50;80.76;95999.22;10365906;28;99348;-71
2022/06/01 03:39:33;;;;;;;;;;;;;;;10.32;80.86;95995.81;10363661;28;103196;-71
2022/06/01 03:49:57;;;;;;;8.43;3.25;;;;;;;9.98;81.12;95999.16;10366568;28;97721;-71
2022/06/01 03:55:00;;;;;;;4.72;3.75;;;;;;;9.91;81.97;95992.88;10359403;28;100077;-71
2022/06/01 04:00:06;;;;;;;4.15;3.50;;;;;;;9.95;81.51;96004.66;10361391;28;96874;-70
2022/06/01 04:05:10;;;;;;;4.60;3.17;;;;;;;9.90;81.36;95994.66;10352587;28;96744;-71
2022/06/01 04:10:13;;;;;;;4.15;2.75;;;;;;;9.87;81.66;95984.53;10368066;28;101999;-70
2022/06/01 04:15:18;;;;;;;4.38;3.13;;;;;;;9.89;81.69;95998.25;10357112;28;98157;-71
2022/06/01 04:20:21;;;;;;;6.33;3.40;;;;;;;9.84;81.54;96003.91;10351776;28;96890;-70
2022/06/01 04:25:24;;;;;;;4.82;3.22;;;;;;;9.81;82.39;96009.41;10359136;28;98540;-71
2022/06/01 04:30:28;;;;;;;6.25;3.30;;;;;;;9.78;82.05;96004.50;10357889;28;97854;-71
2022/06/01 04:35:31;;;;;;;4.37;3.70;;;;;;;9.77;82.64;96013.31;10362749;28;98922;-71
2022/06/01 04:40:35;;;;;;;4.13;3.35;;;;;;;9.82;82.36;96008.47;10365428;28;97319;-71
2022/06/01 04:45:39;;;;;;;5.90;2.95;;;;;;;9.95;82.15;96002.84;10371442;28;96991;-71
2022/06/01 04:50:43;;;;;;;6.63;3.43;;;;;;;10.05;82.41;96001.00;10375222;28;97050;-71
2022/06/01 04:55:47;;;;;;;4.53;3.38;;;;;;;10.07;82.33;95998.22;10380988;28;96936;-71
2022/06/01 05:00:52;;;;;;;3.70;3.30;;;;;;;10.13;82.18;96002.88;10368048;28;98828;-71
2022/06/01 05:05:55;;;;;;;6.33;3.60;;;;;;;10.20;82.31;96013.50;10370528;28;97624;-71
2022/06/01 05:10:57;;;;;;;8.02;3.95;;;;;;;10.38;82.40;96010.88;10370603;28;100832;-71
2022/06/01 05:16:02;;;;;;;6.85;3.38;;;;;;;10.55;82.94;96007.41;10371516;28;96938;-71
2022/06/01 05:21:05;;;;;;;;;;;;;;;10.75;82.54;96007.19;10370809;28;96839;-71
2022/06/01 05:26:08;;;;;;;5.32;3.42;;;;;;;11.07;81.61;96010.94;10375786;28;98090;-71
2022/06/01 05:31:14;;;;;;;6.03;3.40;;;;;;;11.52;81.62;96010.69;10378182;28;97796;-71
2022/06/01 05:36:18;;;;;;;4.68;3.45;;;;;;;11.97;80.79;96015.66;10369852;28;99175;-71
2022/06/01 05:41:21;;;;;;;5.27;3.53;;;;;;;12.33;80.42;96004.91;10372178;28;96932;-71
2022/06/01 05:46:26;;;;;;;7.82;3.67;;;;;;;12.57;80.27;96014.53;10370390;28;96952;-71
2022/06/01 05:51:30;;;;;;;8.85;4.57;;;;;;;12.77;80.24;96004.50;10364789;28;100118;-71
2022/06/01 05:56:33;;;;;;;5.35;3.75;;;;;;;13.06;79.96;96009.22;10364342;28;96845;-71
2022/06/01 06:01:37;;;;;;;5.30;4.07;;;;;;;13.23;79.05;96021.28;10369922;28;97539;-71
2022/06/01 06:06:40;;;;;;;7.75;3.97;;;;;;;13.38;79.50;96028.47;10375513;28;96965;-71
2022/06/01 06:11:43;;;;;;;5.57;3.60;;;;;;;13.55;79.17;96016.06;10376572;28;96994;-71
2022/06/01 06:16:48;;;;;;;5.32;3.72;;;;;;;13.75;79.40;96019.09;10374700;28;96789;-71
2022/06/01 06:21:51;;;;;;;;;;;;;;;14.16;78.40;96016.22;10367790;28;96772;-72
2022/06/01 06:26:53;;;;;;;8.63;3.50;;;;;;;14.63;77.49;96023.06;10369964;28;102078;-72
2022/06/01 06:31:58;;;;;;;4.88;3.47;;;;;;;14.96;76.40;96032.44;10357255;28;97064;-72
2022/06/01 06:37:01;;;;;;;3.80;3.13;;;;;;;15.15;76.46;96036.38;10353688;28;97028;-72
2022/06/01 06:42:05;;;;;;;3.95;3.10;;;;;;;15.18;76.17;96049.16;10349871;28;97083;-72
2022/06/01 06:47:09;;;;;;;4.38;3.03;;;;;;;15.34;76.03;96056.91;10359651;28;98629;-71
2022/06/01 06:52:12;;;;;;;3.38;2.92;;;;;;;15.43;75.66;96050.53;10350326;28;97049;-71
2022/06/01 06:57:15;;;;;;;4.68;3.33;;;;;;;15.60;75.41;96045.09;10360365;28;97252;-72
2022/06/01 07:02:19;;;;;;;4.32;3.22;;;;;;;15.79;75.38;96048.97;10362031;28;96893;-72
2022/06/01 07:07:22;;;;;;;4.53;3.40;;;;;;;15.85;75.00;96056.94;10377966;28;96912;-72
2022/06/01 07:12:25;;;;;;;5.70;3.80;;;;;;;16.03;74.65;96055.72;10358134;28;96950;-71
2022/06/01 07:17:29;;;;;;;5.55;4.30;;;;;;;16.15;74.63;96070.03;10371729;28;97757;-71
2022/06/01 07:22:32;;;;;;;6.95;4.28;;;;;;;16.31;74.60;96055.81;10362791;28;97951;-71
2022/06/01 07:27:36;;;;;;;4.60;4.05;;;;;;;16.58;74.41;96053.41;10359751;28;96966;-71
2022/06/01 07:32:48;;;;;;;6.22;4.20;;;;;;;16.87;73.55;96049.03;10373997;28;99459;-72
2022/06/01 07:43:14;;;;;;;8.07;4.55;;;;;;;17.07;73.51;96068.41;10374432;28;97216;-71
2022/06/01 07:48:18;;;;;;;4.95;4.10;;;;;;;17.05;72.88;96074.91;10383879;28;96845;-72
2022/06/01 07:53:41;;;;;;;5.00;4.33;;;;;;;16.82;72.99;96078.59;10374781;28;96937;-72
2022/06/01 07:58:45;;;;;;;4.88;4.32;;;;;;;16.50;74.07;96075.47;10378882;28;96798;-71
2022/06/01 08:03:50;;;;;;;4.33;3.90;;;;;;;16.56;74.24;96076.53;10374648;28;96730;-72
2022/06/01 08:08:52;;;;;;;;;;;;;;;16.70;73.88;96082.72;10375042;28;97261;-72
2022/06/01 08:13:55;;;;;;;7.53;4.70;;;;;;;16.99;72.70;96074.66;10376012;28;96853;-72
2022/06/01 08:19:00;;;;;;;5.57;4.20;;;;;;;16.98;72.12;96080.94;10383326;28;97102;-72
2022/06/01 08:24:04;;;;;;;4.70;4.22;;;;;;;16.96;71.58;96080.31;10370878;28;96958;-72
2022/06/01 08:29:07;;;;;;;;;;;;;;;17.10;72.05;96085.72;10375520;28;96763;-71
2022/06/01 08:34:15;;;;;;;6.03;4.55;;;;;;;17.40;71.69;96093.41;10376490;28;98930;-72
2022/06/01 08:39:18;;;;;;;7.00;5.00;;;;;;;17.50;70.75;96088.59;10373464;28;96948;-72
2022/06/01 08:44:27;;;;;;;6.25;3.97;;;;;;;17.57;71.09;96087.63;10374454;28;97927;-72
2022/06/01 08:49:34;;;;;;;4.93;3.83;;;;;;;17.59;70.23;96105.91;10375386;28;97237;-72
2022/06/01 08:54:37;;;;;;;4.38;3.97;;;;;;;17.53;70.16;96096.94;10377384;28;97011;-72
2022/06/01 08:59:48;;;;;;;4.20;3.80;;;;;;;17.68;69.85;96091.56;10380775;28;96994;-72
2022/06/01 09:04:58;;;;;;;4.90;4.50;;;;;;;17.83;68.70;96099.31;10379331;28;96781;-72
2022/06/01 09:10:18;;;;;;;6.03;4.68;;;;;;;17.96;68.36;96098.63;10373862;28;97026;-72
2022/06/01 09:15:29;;;;;;;7.65;5.35;;;;;;;18.10;68.02;96100.28;10373463;28;97941;-72
2022/06/01 09:25:56;;;;;;;7.20;5.10;;;;;;;18.26;67.60;96098.31;10371500;28;96774;-72
2022/06/01 09:31:02;;;;;;;7.28;5.47;;;;;;;18.52;67.55;96096.75;10375564;28;97104;-72
2022/06/01 09:36:25;;;;;;;7.50;6.50;;;;;;;18.72;67.44;96089.63;10384136;28;97295;-72
2022/06/01 09:41:31;;;;;;;6.32;5.72;;;;;;;18.98;65.97;96085.38;10364582;28;96954;-71
2022/06/01 09:46:49;;;;;;;7.40;5.80;;;;;;;19.15;65.48;96094.53;10382197;28;96829;-72
2022/06/01 09:51:57;;;;;;;5.95;4.95;;;;;;;19.04;66.17;96095.16;10379105;28;96744;-72
2022/06/01 09:57:17;;;;;;;6.45;5.75;;;;;;;18.59;66.87;96114.22;10390833;28;96942;-72
2022/06/01 10:07:46;;;;;;;6.97;6.28;;;;;;;17.78;69.00;96132.63;10379884;28;96820;-72
2022/06/01 10:12:52;;;;;;;;;;;;;;;17.60;69.48;96146.38;10378592;28;99303;-71
2022/06/01 10:18:01;;;;;;;8.38;6.65;;;;;;;17.35;70.52;96149.44;10383858;28;97850;-72
2022/06/01 10:23:10;;;;;;;7.95;6.40;;;;;;;17.15;71.31;96155.38;10377317;28;96930;-72
2022/06/01 10:28:17;;;;;;;8.02;6.65;;;;;;;17.17;71.89;96158.66;10378689;28;97178;-72
2022/06/01 10:33:45;;;;;;;8.63;7.75;;;;;;;17.13;72.78;96148.69;10378396;28;97179;-72
2022/06/01 10:38:57;;;;;;;9.13;7.55;;;;;;;17.16;73.02;96145.63;10377531;28;96804;-72
2022/06/01 10:44:06;;;;;;;9.65;7.68;;;;;;;17.48;72.37;96132.88;10370746;28;96887;-72
2022/06/01 10:49:26;;;;;;;8.25;7.45;;;;;;;17.56;72.11;96135.34;10377933;28;96884;-72
2022/06/01 10:54:39;;;;;;;8.02;7.25;;;;;;;17.71;71.27;96136.03;10373723;28;96723;-71
2022/06/01 10:59:42;;;;;;;8.23;7.40;;;;;;;17.61;71.61;96132.13;10373433;28;96935;-71
2022/06/01 11:05:13;;;;;;;7.70;6.90;;;;;;;17.67;71.83;96153.31;10378800;28;96939;-72
2022/06/01 11:10:28;;;;;;;7.75;7.03;;;;;;;17.63;71.99;96148.59;10373466;28;96913;-72
2022/06/01 11:15:38;;;;;;;8.55;7.65;;;;;;;17.66;71.70;96159.59;10376865;28;96905;-72
2022/06/01 11:20:58;;;;;;;8.60;7.70;;;;;;;17.66;71.99;96164.88;10376613;28;96920;-72
2022/06/01 11:26:12;;;;;;;10.73;7.82;;;;;;;17.65;72.16;96154.53;10387206;28;98049;-72
2022/06/01 11:31:19;;;;;;;8.85;7.43;;;;;;;17.69;72.13;96150.47;10377217;28;96836;-72
2022/06/01 11:36:29;;;;;;;7.95;7.10;;;;;;;17.63;72.34;96152.06;10377598;27;99776;-72
2022/06/01 11:41:38;;;;;;;7.88;7.18;;;;;;;17.68;72.56;96154.13;10373761;28;96756;-72
2022/06/01 11:46:45;;;;;;;10.48;6.97;;;;;;;17.94;72.29;96153.47;10376903;28;96937;-72
2022/06/01 11:51:50;;;;;;;10.63;7.18;;;;;;;18.13;72.02;96163.34;10378459;27;96751;-73
2022/06/01 11:57:00;;;;;;;11.23;6.95;;;;;;;18.09;71.13;96156.00;10381586;28;96778;-72
2022/06/01 12:02:19;;;;;;;11.95;7.18;;;;;;;17.93;71.48;96157.16;10364050;28;96944;-72
2022/06/01 12:07:29;;;;;;;7.75;7.03;;;;;;;17.76;71.89;96156.63;10372089;28;97010;-72
2022/06/01 12:12:57;;;;;;;8.10;7.30;;;;;;;17.90;71.64;96144.31;10374557;28;96768;-72
2022/06/01 12:18:08;;;;;;;9.18;8.18;;;;;;;17.99;72.24;96129.91;10371188;28;96951;-72
2022/06/01 12:29:32;;;;;;;7.50;6.68;;;;;;;18.13;71.93;96105.19;10311142;28;97150;-72
2022/06/01 12:34:42;;;;;;;9.18;6.45;;;;;;;17.82;72.58;96107.44;10319338;28;96839;-71
2022/06/01 12:39:50;;;;;;;8.68;7.25;;;;;;;17.56;72.91;96104.50;10318440;28;98069;-72
2022/06/01 12:44:57;;;;;;;8.40;7.22;;;;;;;17.53;72.99;96082.94;10303913;28;96958;-72
2022/06/01 12:50:09;;;;;;;7.68;6.75;;;;;;;17.59;72.31;96086.63;10323792;28;97029;-71
2022/06/01 12:55:14;;;;;;;6.53;5.72;;;;;;;17.72;71.54;96082.22;10312180;28;97081;-72
2022/06/01 13:00:27;;;;;;;6.03;5.28;;;;;;;17.89;71.32;96072.16;10332462;28;96913;-72
2022/06/01 13:05:37;;;;;;;5.68;4.65;;;;;;;18.43;69.56;96065.19;10377840;28;96815;-72
2022/06/01 13:10:40;;;;;;;4.90;4.40;;;;;;;18.99;68.37;96060.56;10382271;28;96938;-72
2022/06/01 13:15:53;;;;;;;5.18;2.97;;;;;;;19.04;66.05;96060.75;10380729;28;98905;-72
2022/06/01 13:21:01;;;;;;;3.35;2.33;;;;;;;18.90;65.39;96056.47;10379809;28;96953;-72
2022/06/01 13:26:07;;;;;;;3.25;2.67;;;;;;;18.83;64.58;96051.97;10389072;28;97008;-72
2022/06/01 13:31:12;;;;;;;6.53;2.78;;;;;;;18.95;65.24;96048.72;10380121;28;98969;-72
2022/06/01 13:36:28;;;;;;;3.15;2.80;;;;;;;19.20;64.11;96041.78;10377331;28;96877;-72
2022/06/01 13:41:38;;;;;;;4.85;2.88;;;;;;;19.60;62.69;96025.75;10379682;28;97185;-72
2022/06/01 13:46:49;;;;;;;4.27;2.50;;;;;;;19.60;62.63;96025.75;10380417;28;96862;-72
2022/06/01 13:51:58;;;;;;;2.80;2.08;;;;;;;19.78;60.54;96017.16;10379777;28;96948;-72
2022/06/01 13:57:05;;;;;;;2.60;1.75;;;;;;;19.75;59.39;96006.16;10385535;28;99985;-72
2022/06/01 14:02:13;;;;;;;3.17;2.10;;;;;;;19.74;58.25;96012.47;10379417;28;97237;-72
2022/06/01 14:07:18;;;;;;;5.28;2.22;;;;;;;19.80;58.80;96015.09;10379992;28;96756;-72
2022/06/01 14:12:22;;;;;;;2.85;1.95;;;;;;;19.85;57.24;96011.81;10376772;28;99744;-72
2022/06/01 14:17:30;;;;;;;4.55;2.00;;;;;;;20.13;58.35;96002.69;10375562;28;96732;-72
2022/06/01 14:22:39;;;;;;;3.40;1.88;;;;;;;20.06;57.17;96015.19;10386247;28;96907;-72
2022/06/01 14:33:06;;;;;;;2.70;1.90;;;;;;;20.14;57.34;95999.03;10377174;28;97000;-72
2022/06/01 14:38:15;;;;;;;3.22;2.13;;;;;;;20.31;57.21;96016.06;10377402;28;97063;-72
2022/06/01 14:43:24;;;;;;;2.50;1.90;;;;;;;20.37;57.17;96001.94;10370043;28;96935;-72
2022/06/01 14:48:28;;;;;;;4.78;2.35;;;;;;;20.43;57.51;95996.81;10362563;28;98473;-72
2022/06/01 14:53:34;;;;;;;3.58;2.17;;;;;;;20.30;58.27;95998.50;10369182;28;98782;-72
2022/06/01 14:58:38;;;;;;;4.30;2.53;;;;;;;20.17;57.62;95999.41;10354346;28;96944;-72
2022/06/01 15:03:45;;;;;;;3.17;2.40;;;;;;;20.24;58.57;95994.06;10359331;28;97132;-73
2022/06/01 15:08:48;;;;;;;3.90;2.55;;;;;;;20.44;57.54;95998.41;10358016;28;96799;-72
2022/06/01 15:13:51;;;;;;;4.05;2.35;;;;;;;20.60;57.74;95981.97;10380162;28;98744;-72
2022/06/01 15:18:58;;;;;;;3.90;2.40;;;;;;;20.81;57.00;95993.22;10357969;28;96813;-72
2022/06/01 15:24:02;;;;;;;3.50;2.28;;;;;;;20.94;56.43;95990.47;10374395;28;97458;-72
2022/06/01 15:39:44;;;;;;;3.33;2.30;;;;;;;21.90;54.51;95979.38;10358720;28;96923;-72
2022/06/01 15:44:47;;;;;;;4.35;2.40;;;;;;;21.68;55.13;95983.34;10387822;28;96955;-72
2022/06/01 15:49:51;;;;;;;4.33;2.70;;;;;;;21.80;55.61;95986.06;10349062;28;96676;-72
2022/06/01 15:54:54;;;;;;;2.92;2.15;;;;;;;23.38;51.82;95969.63;10366156;28;96882;-72
2022/06/01 15:59:57;;;;;;;4.40;2.50;;;;;;;25.18;49.26;95966.53;10388270;28;97215;-72
2022/06/01 16:05:03;;;;;;;3.75;2.60;;;;;;;26.45;47.28;95979.78;10387781;28;97411;-72
2022/06/01 16:10:08;;;;;;;4.63;2.20;;;;;;;27.68;45.77;95966.34;10379261;28;96707;-73
2022/06/01 16:15:11;;;;;;;4.15;2.20;;;;;;;29.57;42.51;95967.44;10388111;28;96895;-72
2022/06/01 16:20:16;;;;;;;;;;;;;;;30.37;43.92;95953.00;10370899;28;98070;-73
2022/06/01 16:25:20;;;;;;;2.55;2.00;;;;;;;30.80;40.41;95960.50;10365718;28;97155;-74
2022/06/01 16:30:23;;;;;;;3.65;2.08;;;;;;;31.64;37.88;95949.38;10369488;28;98097;-73
2022/06/01 16:35:31;;;;;;;4.43;2.00;;;;;;;32.46;36.07;95958.25;10362319;28;97489;-74
2022/06/01 16:40:34;;;;;;;4.57;1.60;;;;;;;32.80;34.81;95943.63;10358215;27;97798;-74
2022/06/01 16:45:39;;;;;;;3.40;2.03;;;;;;;32.79;35.75;95945.56;10368441;28;99263;-74
2022/06/01 16:50:43;;;;;;;3.88;2.17;;;;;;;31.47;36.03;95952.56;10375201;28;97268;-74
2022/06/01 16:55:47;;;;;;;4.45;2.55;;;;;;;30.62;37.22;95951.22;10371936;28;96895;-74
2022/06/01 17:00:50;;;;;;;4.93;2.60;;;;;;;30.41;37.72;95954.06;10364924;28;96887;-73
2022/06/01 17:05:54;;;;;;;2.40;2.10;;;;;;;29.30;39.06;95951.66;10366612;28;98778;-74
2022/06/01 17:10:57;;;;;;;2.58;1.92;;;;;;;28.90;39.08;95943.38;10372982;28;99067;-72
2022/06/01 17:16:01;;;;;;;3.58;2.10;;;;;;;27.90;40.58;95954.63;10367756;28;98380;-73
2022/06/01 17:21:05;;;;;;;3.47;2.30;;;;;;;26.09;43.68;95959.88;10367716;28;100675;-83
2022/06/01 17:26:09;;;;;;;4.10;2.33;;;;;;;24.86;46.10;95957.28;10373882;28;96878;-72
2022/06/01 17:31:17;;;;;;;5.03;2.23;;;;;;;24.24;47.14;95965.38;10368301;28;98173;-72
2022/06/01 17:36:22;;;;;;;3.20;2.30;;;;;;;23.78;48.41;95962.66;10368520;28;97032;-72
2022/06/01 17:41:25;;;;;;;2.78;2.35;;;;;;;23.42;49.46;95953.94;10371649;28;97575;-72
2022/06/01 17:46:28;;;;;;;4.60;2.53;;;;;;;23.19;49.96;95965.44;10391660;28;96891;-72
2022/06/01 17:51:33;;;;;;;6.10;3.00;;;;;;;22.99;51.16;95965.81;10370436;28;97160;-72
2022/06/01 17:56:37;;;;;;;4.72;2.90;;;;;;;22.49;53.23;95972.41;10372488;28;97170;-72
2022/06/01 18:01:40;;;;;;;3.83;2.88;;;;;;;22.81;52.89;95974.75;10381758;28;96997;-72
2022/06/01 18:06:45;;;;;;;5.03;3.95;;;;;;;22.52;53.87;95963.94;10365587;28;98178;-72
2022/06/01 18:11:48;;;;;;;6.45;3.90;;;;;;;21.95;55.57;95977.66;10372752;28;97130;-72
2022/06/01 18:16:51;;;;;;;4.22;3.63;;;;;;;21.36;56.43;95966.72;10368364;28;97812;-73
2022/06/01 18:21:56;;;;;;;5.63;3.42;;;;;;;20.88;57.94;95972.78;10355421;28;96830;-72
2022/06/01 18:26:59;;;;;;;5.68;3.72;;;;;;;20.47;59.44;95976.75;10352770;28;98930;-72
2022/06/01 18:32:02;;;;;;;8.38;4.55;;;;;;;19.92;60.90;95975.50;10360229;28;97696;-72
2022/06/01 18:37:24;;;;;;;4.70;4.20;;;;;;;19.46;61.95;95981.81;10370348;28;97106;-72
2022/06/01 18:42:28;;;;;;;7.22;4.32;;;;;;;19.22;62.26;95997.34;10368199;28;100717;-72
2022/06/01 18:47:31;;;;;;;6.13;4.45;;;;;;;19.03;63.49;95992.94;10370168;28;96807;-71
2022/06/01 18:52:36;;;;;;;7.18;4.72;;;;;;;18.75;64.48;96007.19;10373300;28;97079;-72
2022/06/01 18:57:40;;;;;;;6.05;4.75;;;;;;;18.59;65.46;96007.59;10365297;28;97854;-72
2022/06/01 19:02:43;;;;;;;7.15;4.25;;;;;;;18.25;66.13;96081.59;10362460;28;101065;-72
2022/06/01 19:07:48;;;;;;;17.48;8.50;;;;;;;17.80;71.09;96024.94;10356927;28;98422;-73
2022/06/01 19:12:52;;;;;;;17.50;10.20;;;;;;;17.40;73.87;95987.78;10371911;28;97196;-71
2022/06/01 19:17:55;;;;;;;14.40;9.20;;;;;;;17.00;74.69;95994.50;10360316;28;97055;-78
2022/06/01 19:22:59;;;;;;;16.08;10.02;;;;;;;16.48;76.08;95989.63;10359003;28;96989;-72
2022/06/01 19:28:03;;;;;;;;;;;;;;;16.24;75.15;96015.38;10359974;28;98140;-73
2022/06/01 19:33:07;;;;;;;17.13;10.93;;;;;;;16.25;76.69;95996.75;10360920;28;97720;-72
2022/06/01 19:48:56;;;;;;;17.98;12.43;;;;;;;15.87;78.71;96039.13;10367252;28;97131;-72
2022/06/01 19:54:01;;;;;;;16.83;12.27;;;;;;;15.76;78.75;96050.16;10371821;28;98140;-73
2022/06/01 19:59:03;;;;;;;15.50;11.70;;;;;;;15.63;79.83;96055.25;10370433;28;97059;-72
2022/06/01 20:04:08;;;;;;;17.42;11.23;;;;;;;15.52;79.64;96063.59;10362261;28;97286;-73
2022/06/01 20:09:13;;;;;;;21.97;13.30;;;;;;;15.46;80.51;96068.59;10356722;28;97399;-73
2022/06/01 20:14:16;;;;;;;;;;;;;;;15.34;79.71;96083.22;10355985;28;97065;-72
2022/06/01 20:19:19;;;;;;;19.67;12.10;;;;;;;15.17;80.26;96074.66;10369469;28;97157;-72
2022/06/01 20:24:23;;;;;;;16.25;11.85;;;;;;;15.01;80.93;96073.03;10368648;28;98331;-73
2022/06/01 20:29:27;;;;;;;14.57;11.33;;;;;;;15.04;80.83;96088.44;10359963;28;97012;-71
2022/06/01 20:34:29;;;;;;;12.65;9.85;;;;;;;14.97;80.69;96066.47;10349141;28;97269;-71
2022/06/01 20:39:33;;;;;;;11.52;7.35;;;;;;;14.80;81.30;96109.69;10365068;28;97661;-71
2022/06/01 20:44:36;;;;;;;15.57;6.77;;;;;;;14.58;80.86;96116.63;10371542;28;98023;-71
2022/06/01 20:49:39;;;;;;;14.77;6.22;;;;;;;14.50;81.49;96086.75;10363285;28;101506;-71
2022/06/01 20:54:44;;;;;;;11.38;7.15;;;;;;;14.56;82.03;96087.88;10353692;28;101288;-71
2022/06/01 20:59:47;;;;;;;9.18;6.78;;;;;;;14.36;81.53;96085.69;10366811;28;97332;-71
2022/06/01 21:04:50;;;;;;;9.23;6.45;;;;;;;14.45;82.43;96090.91;10362295;28;97253;-71
2022/06/01 21:09:54;;;;;;;8.60;7.10;;;;;;;14.59;82.18;96100.66;10373692;28;98275;-71
2022/06/01 21:14:57;;;;;;;13.67;7.90;;;;;;;14.65;81.54;96081.56;10364324;28;96762;-71
2022/06/01 21:20:05;;;;;;;12.55;7.57;;;;;;;14.56;80.92;96090.50;10368293;28;97193;-71
2022/06/01 21:25:12;;;;;;;29.15;17.55;;;;;;;14.26;81.87;96111.38;10361248;28;97316;-71
2022/06/01 21:30:16;;;;;;;9.85;6.70;;;;;;;14.17;82.38;96109.78;10361889;28;98621;-71
2022/06/01 21:35:22;;;;;;;11.70;7.20;;;;;;;14.26;81.87;96098.25;10365419;28;98585;-72
2022/06/01 21:40:26;;;;;;;9.98;7.45;;;;;;;14.18;82.82;96104.34;10372965;28;98605;-71
2022/06/01 21:45:29;;;;;;;12.18;8.05;;;;;;;14.20;82.04;96091.03;10362217;28;97190;-71
2022/06/01 21:50:32;;;;;;;6.90;6.15;;;;;;;14.19;82.61;96084.16;10369592;28;98559;-71
2022/06/01 21:55:37;;;;;;;6.35;5.20;;;;;;;14.30;82.23;96090.84;10364923;28;96857;-71
2022/06/01 22:00:44;;;;;;;7.28;5.50;;;;;;;14.36;81.84;96096.22;10367018;28;97206;-71
2022/06/01 22:05:50;;;;;;;6.97;5.55;;;;;;;14.39;82.47;96097.69;10363379;28;97410;-71
2022/06/01 22:16:15;;;;;;;7.13;5.30;;;;;;;14.33;82.38;96125.50;10368386;28;97893;-71
2022/06/01 22:21:19;;;;;;;12.20;6.30;;;;;;;14.29;82.57;96147.81;10369487;28;97086;-71
2022/06/01 22:26:25;;;;;;;8.30;5.93;;;;;;;14.40;82.35;96109.00;10366880;28;98561;-71
2022/06/01 22:31:27;;;;;;;7.97;5.38;;;;;;;14.47;82.72;96113.41;10362172;28;96889;-71
2022/06/01 22:41:58;;;;;;;8.38;5.93;;;;;;;14.47;82.30;96128.34;10358242;28;99307;-71
2022/06/01 22:47:04;;;;;;;;;;;;;;;14.40;81.65;96127.41;10352876;28;98065;-71
2022/06/01 22:52:08;;;;;;;;;;;;;;;14.33;81.63;96132.53;10370788;28;97041;-70
2022/06/01 22:57:13;;;;;;;10.93;7.10;;;;;;;14.42;81.55;96125.41;10363024;28;98081;-70
2022/06/01 23:02:16;;;;;;;;;;;;;;;14.50;81.94;96128.81;10371497;28;96848;-70
2022/06/01 23:07:19;;;;;;;9.82;7.90;;;;;;;14.49;82.01;96137.69;10369901;28;97161;-70
2022/06/01 23:12:23;;;;;;;10.40;8.10;;;;;;;14.46;81.75;96142.50;10369651;28;97043;-71
2022/06/01 23:17:26;;;;;;;9.23;7.03;;;;;;;14.43;82.20;96092.91;10374389;28;97031;-72
2022/06/01 23:22:29;;;;;;;8.18;6.38;;;;;;;14.50;82.70;96088.56;10362541;28;99306;-70
2022/06/01 23:27:35;;;;;;;9.45;6.90;;;;;;;14.49;82.76;96137.69;10359258;28;98240;-70
2022/06/01 23:33:00;;;;;;;12.63;7.55;;;;;;;14.46;83.69;96097.81;10364738;28;97016;-70
2022/06/01 23:38:16;;;;;;;9.30;6.95;;;;;;;14.37;83.81;96144.34;10361279;28;99182;-71
2022/06/01 23:43:51;;;;;;;7.70;6.10;;;;;;;14.20;83.75;96064.78;10360893;28;98588;-71
2022/06/01 23:49:09;;;;;;;;;;;;;;;14.23;82.68;96042.56;10364235;28;97777;-71
2022/06/01 23:54:34;;;;;;;11.15;6.13;;;;;;;14.22;83.30;96078.53;10353978;28;98823;-70
